Погода Чухилинона неделю

Витебская область, Белоруссия

24 - 30 мая
  • 24мая
    Сегодня
    +10°
    +23°
    Ясно и безоблачно
    ВремяПогодаТемператураВлажностьДавлениеВетер, м/сВероятность осадков
    00:00Ясно и безоблачно+15°C53 %754 мм3.6 м/с2 %
    03:00Ясно и безоблачно+12°C62 %755 мм3.1 м/с2 %
    06:00Ясно и безоблачно+12°C64 %756 мм3.4 м/с2 %
    09:00Ясно и безоблачно+17°C57 %756 мм3.8 м/с2 %
    12:00Ясно и безоблачно+21°C39 %756 мм4.7 м/с2 %
    15:00Ясно и безоблачно+23°C36 %756 мм4.3 м/с2 %
    18:00Ясно и безоблачно+22°C38 %755 мм3.7 м/с2 %
    21:00Ясно и безоблачно+18°C53 %755 мм2.9 м/с2 %
  • 25мая
    Суббота
    +11°
    +25°
    Ясно и безоблачно
    ВремяПогодаТемператураВлажностьДавлениеВетер, м/сВероятность осадков
    00:00Ясно и безоблачно+14°C57 %755 мм3.0 м/с2 %
    03:00Ясно и безоблачно+11°C64 %755 мм2.4 м/с2 %
    06:00Ясно и безоблачно+11°C69 %755 мм2.5 м/с2 %
    09:00Ясно и безоблачно+17°C58 %755 мм2.1 м/с2 %
    12:00Ясно и безоблачно+22°C44 %755 мм2.1 м/с2 %
    15:00Ясно и безоблачно+24°C40 %754 мм2.0 м/с2 %
    18:00Ясно и безоблачно+24°C39 %753 мм1.5 м/с2 %
    21:00Ясно и безоблачно+19°C68 %753 мм2.3 м/с2 %
  • 26мая
    Воскресенье
    +13°
    +26°
    Небольшая облачность
    ВремяПогодаТемператураВлажностьДавлениеВетер, м/сВероятность осадков
    00:00Ясно и безоблачно+19°C57 %753 мм1.4 м/с2 %
    03:00Ясно и безоблачно+15°C69 %753 мм1.8 м/с2 %
    06:00Ясно и безоблачно+14°C80 %753 мм1.1 м/с2 %
    09:00Ясно и безоблачно+20°C61 %753 мм1.0 м/с2 %
    12:00Ясно и безоблачно+24°C40 %753 мм0.5 м/с2 %
    15:00Небольшая облачность+25°C34 %753 мм0.8 м/с2 %
    18:00Практически безоблачно+25°C34 %752 мм1.6 м/с2 %
    21:00Ясно и безоблачно+22°C47 %752 мм1.1 м/с2 %
  • 27мая
    Понедельник
    +14°
    +25°
    Ясно и безоблачно
    ВремяПогодаТемператураВлажностьДавлениеВетер, м/сВероятность осадков
    00:00Ясно и безоблачно+16°C68 %752 мм1.7 м/с2 %
    03:00Ясно и безоблачно+15°C82 %752 мм2.2 м/с2 %
    06:00Ясно и безоблачно+15°C83 %753 мм1.9 м/с2 %
    09:00Ясно и безоблачно+20°C64 %753 мм1.8 м/с2 %
    12:00Практически безоблачно+24°C45 %753 мм2.0 м/с6 %
    15:00Ясно и безоблачно+25°C44 %753 мм1.5 м/с21 %
    18:00Облачно с прояснениями+22°C51 %752 мм2.2 м/с26 %
    21:00Ясно и безоблачно+21°C72 %752 мм1.0 м/с10 %
  • 28мая
    Вторник
    +14°
    +26°
    Практически безоблачно
    ВремяПогодаТемператураВлажностьДавлениеВетер, м/сВероятность осадков
    00:00Ясно и безоблачно+17°C86 %752 мм2.0 м/с2 %
    03:00Ясно и безоблачно+18°C80 %752 мм1.0 м/с2 %
    06:00Ясно и безоблачно+15°C88 %752 мм1.5 м/с2 %
    09:00Ясно и безоблачно+21°C64 %752 мм1.2 м/с2 %
    12:00Практически безоблачно+24°C49 %752 мм1.5 м/с12 %
    15:00Практически безоблачно+25°C48 %751 мм1.0 м/с17 %
    18:00Облачно с прояснениями+24°C50 %750 мм1.6 м/с26 %
    21:00Практически безоблачно+20°C72 %750 мм1.5 м/с13 %
Мы используем cookies
Соглашаюсь